»·PEaware :: N172SP KSNA-KCRQ

N172SP :: KSNA-KCRQ

FLIGHT INFORMATION

Flight Status: Arrived
Operator: Privately registered:
United States
More flights under this callsign
Pilot: Carson T. (20437)
Aircraft: CESSNA 172 SKYHAWK
(C172)
More flights by this aircraft type
Origin: KSNA John Wayne-Orange Co
United States
Destination: KCRQ McClellan-Palomar
United States
More flights between these airports :: More routes between these airports
Route: +V23 OCN
File this flight plan on PilotEdge
Remarks: I-2 Rating, vectors for the ILS RWY 24R approach @ KCRQ.
Altitude:
(Current/Filed)
5,000ft
Speed:
(Current/Filed)
120kts
Departed: 17-Oct-18 03:06 PM
Arrived: 17-Oct-18 03:42 PM
Distance/Time
Traveled:
0nm/0:35
Distance/Time
To Go:
Arrived

Flight Plot

Page will automatically refresh every two minutes.


Map Options




Map Legend


Flown Route
Filed Route
Departure Airport
Arrival Airport
Navaid (VOR, NDB)
Fix

Horizontal Profiles

Position Reports

Time Latitude Longitude Heading Altitude Ground
Speed
17-Oct-18 14:48 33.676205 -117.871104 212 60ft 0kts
17-Oct-18 14:49 33.676205 -117.871104 212 60ft 0kts
17-Oct-18 14:50 33.676205 -117.871104 212 60ft 0kts
17-Oct-18 14:51 33.676205 -117.871104 212 60ft 0kts
17-Oct-18 14:52 33.676205 -117.871104 212 60ft 0kts
17-Oct-18 14:53 33.676205 -117.871104 212 60ft 0kts
17-Oct-18 14:54 33.676205 -117.871104 212 60ft 0kts
17-Oct-18 14:55 33.676205 -117.871104 212 60ft 0kts
17-Oct-18 14:56 33.676205 -117.871104 212 60ft 0kts
17-Oct-18 14:57 33.676205 -117.871104 212 60ft 0kts
17-Oct-18 14:58 33.676205 -117.871104 212 60ft 0kts
17-Oct-18 14:59 33.676205 -117.871104 212 60ft 0kts
17-Oct-18 15:00 33.676205 -117.871104 212 60ft 0kts
17-Oct-18 15:01 33.676205 -117.871104 212 60ft 0kts
17-Oct-18 15:02 33.676205 -117.871104 212 60ft 0kts
17-Oct-18 15:03 33.676205 -117.871104 212 60ft 0kts
17-Oct-18 15:04 33.675677 -117.870327 27 60ft 11kts
17-Oct-18 15:05 33.680222 -117.867630 26 60ft 21kts
17-Oct-18 15:06 33.681239 -117.866486 117 60ft 0kts
17-Oct-18 15:07 33.680378 -117.865871 202 60ft 22kts
17-Oct-18 15:08 33.660749 -117.877833 198 626ft 93kts
17-Oct-18 15:09 33.634220 -117.879469 181 1472ft 97kts
17-Oct-18 15:10 33.607121 -117.879112 184 2249ft 98kts
17-Oct-18 15:11 33.584349 -117.864681 112 2955ft 112kts
17-Oct-18 15:12 33.574227 -117.828470 113 3609ft 116kts
17-Oct-18 15:13 33.558856 -117.794330 119 4203ft 119kts
17-Oct-18 15:14 33.539872 -117.761522 129 4732ft 121kts
17-Oct-18 15:15 33.519079 -117.728680 128 5128ft 131kts
17-Oct-18 15:16 33.494318 -117.694065 130 5084ft 137kts
17-Oct-18 15:17 33.468634 -117.660985 134 5052ft 133kts
17-Oct-18 15:18 33.441503 -117.631950 135 5068ft 129kts
17-Oct-18 15:19 33.414886 -117.603456 136 5059ft 127kts
17-Oct-18 15:20 33.388131 -117.575527 133 5014ft 128kts
17-Oct-18 15:21 33.363024 -117.544885 131 4975ft 129kts
17-Oct-18 15:22 33.341059 -117.511757 105 4841ft 129kts
17-Oct-18 15:23 33.338951 -117.469741 82 4419ft 130kts
17-Oct-18 15:24 33.321867 -117.435743 156 4290ft 128kts
17-Oct-18 15:25 33.286519 -117.425556 172 4539ft 132kts
17-Oct-18 15:26 33.250475 -117.417602 172 4800ft 133kts
17-Oct-18 15:27 33.237777 -117.382713 80 4528ft 135kts
17-Oct-18 15:28 33.241526 -117.337544 80 4105ft 136kts
17-Oct-18 15:29 33.245164 -117.293033 84 3996ft 136kts
17-Oct-18 15:30 33.247851 -117.248529 83 4047ft 133kts
17-Oct-18 15:31 33.251867 -117.204484 80 4028ft 134kts
17-Oct-18 15:32 33.255820 -117.160361 82 4025ft 133kts
17-Oct-18 15:33 33.258795 -117.116493 84 4036ft 132kts
17-Oct-18 15:34 33.259012 -117.072544 111 4032ft 134kts
17-Oct-18 15:35 33.227349 -117.051174 158 4055ft 134kts
17-Oct-18 15:36 33.192700 -117.032923 154 3996ft 136kts
17-Oct-18 15:37 33.165175 -117.041390 268 3841ft 121kts
17-Oct-18 15:38 33.159006 -117.081087 258 3612ft 122kts
17-Oct-18 15:39 33.152217 -117.120283 264 3290ft 114kts
17-Oct-18 15:40 33.147512 -117.160107 259 2385ft 121kts
17-Oct-18 15:41 33.141094 -117.197859 264 1704ft 114kts
17-Oct-18 15:42 33.137154 -117.228424 257 1152ft 90kts
17-Oct-18 15:43 33.131811 -117.258116 258 649ft 74kts
17-Oct-18 15:44 33.128675 -117.277504 259 309ft 34kts
17-Oct-18 15:45 33.127407 -117.280154 206 309ft 6kts
17-Oct-18 15:46 33.127098 -117.280415 187 310ft 0kts
17-Oct-18 15:49 33.676205 -117.871104 212 60ft 0kts
17-Oct-18 15:50 33.676205 -117.871104 212 60ft 0kts
17-Oct-18 15:51 33.676205 -117.871104 212 60ft 0kts
17-Oct-18 15:52 33.676205 -117.871104 212 60ft 0kts
17-Oct-18 15:53 33.676205 -117.871104 212 60ft 0kts
17-Oct-18 15:54 33.676205 -117.871104 212 60ft 0kts
17-Oct-18 15:55 33.676205 -117.871104 212 60ft 0kts

Navigation Log

Ident Type
1. KSNA Airport
2. OCN Navaid
3. KCRQ Airport